createdAt,value
2023-04-05T00:01:33.919Z,4.10
2023-04-05T00:03:36.005Z,3.42
2023-04-05T00:05:38.586Z,3.55
2023-04-05T00:07:40.697Z,3.60
2023-04-05T00:09:42.511Z,3.80
2023-04-05T00:11:44.360Z,3.17
2023-04-05T00:13:46.322Z,3.75
2023-04-05T00:15:49.395Z,3.63
2023-04-05T00:17:51.404Z,3.67
2023-04-05T00:19:57.431Z,3.20
2023-04-05T00:21:59.882Z,3.95
2023-04-05T00:24:01.738Z,2.97
2023-04-05T00:26:03.640Z,3.20
2023-04-05T00:28:05.665Z,4.13
2023-04-05T00:30:08.389Z,3.08
2023-04-05T00:32:10.249Z,2.95
2023-04-05T00:34:12.613Z,3.13
2023-04-05T00:36:15.882Z,3.10
2023-04-05T00:38:17.815Z,3.22
2023-04-05T00:40:20.046Z,3.17
2023-04-05T00:42:21.938Z,3.08
2023-04-05T00:44:23.923Z,2.92
2023-04-05T00:46:26.942Z,3.10
2023-04-05T00:48:29.658Z,3.83
2023-04-05T00:50:31.686Z,3.85
2023-04-05T00:52:33.722Z,3.25
2023-04-05T00:54:35.831Z,3.70
2023-04-05T00:56:37.921Z,3.40
2023-04-05T00:58:42.414Z,3.42
2023-04-05T01:00:56.249Z,2.85
2023-04-05T01:03:03.304Z,3.40
2023-04-05T01:05:18.349Z,3.40
2023-04-05T01:07:28.241Z,3.60
2023-04-05T01:09:38.590Z,3.72
2023-04-05T01:11:42.822Z,3.88
2023-04-05T01:13:47.057Z,3.35
2023-04-05T01:15:48.874Z,3.78
2023-04-05T01:17:50.731Z,3.65
2023-04-05T01:20:10.703Z,3.78
2023-04-05T01:22:15.998Z,3.42
2023-04-05T01:24:25.273Z,3.55
2023-04-05T01:26:30.640Z,3.83
2023-04-05T01:28:50.984Z,3.95
2023-04-05T01:31:02.494Z,4.22
2023-04-05T01:33:07.915Z,3.85
2023-04-05T01:35:17.953Z,4.75
2023-04-05T01:37:23.123Z,4.50
2023-04-05T01:39:26.615Z,4.07
2023-04-05T01:41:29.837Z,3.95
2023-04-05T01:43:31.709Z,4.85
2023-04-05T01:45:33.977Z,4.72
2023-04-05T01:47:35.831Z,4.25
2023-04-05T01:49:37.585Z,4.43
2023-04-05T01:51:42.186Z,3.97
2023-04-05T01:53:43.903Z,5.30
2023-04-05T01:55:46.310Z,3.72
2023-04-05T01:57:48.115Z,4.32
2023-04-05T01:59:49.840Z,4.25
2023-04-05T02:01:52.139Z,3.90
2023-04-05T02:03:54.041Z,4.22
2023-04-05T02:05:56.088Z,4.15
2023-04-05T02:07:57.840Z,4.05
2023-04-05T02:09:59.534Z,3.47
2023-04-05T02:12:01.708Z,3.38
2023-04-05T02:14:04.259Z,3.33
2023-04-05T02:16:06.348Z,2.88
2023-04-05T02:18:09.559Z,3.10
2023-04-05T02:20:12.608Z,3.30
2023-04-05T02:22:14.494Z,3.05
2023-04-05T02:24:16.369Z,3.88
2023-04-05T02:26:18.316Z,3.33
2023-04-05T02:28:20.078Z,2.85
2023-04-05T02:30:21.890Z,3.58
2023-04-05T02:32:24.286Z,3.67
2023-04-05T02:34:26.141Z,4.25
2023-04-05T02:36:29.020Z,3.38
2023-04-05T02:38:30.772Z,2.80
2023-04-05T02:40:32.952Z,3.20
2023-04-05T02:42:34.708Z,4.00
2023-04-05T02:44:37.130Z,3.58
2023-04-05T02:46:38.902Z,3.25
2023-04-05T02:48:40.709Z,3.30
2023-04-05T02:50:42.712Z,3.75
2023-04-05T02:52:47.904Z,3.70
2023-04-05T02:54:49.666Z,4.18
2023-04-05T02:56:54.732Z,3.03
2023-04-05T02:58:56.469Z,3.50
2023-04-05T03:01:01.933Z,2.95
2023-04-05T03:03:06.279Z,3.33
2023-04-05T03:05:09.481Z,2.97
2023-04-05T03:07:14.523Z,3.17
2023-04-05T03:09:16.203Z,3.83
2023-04-05T03:11:17.988Z,3.17
2023-04-05T03:13:19.831Z,3.35
2023-04-05T03:15:21.677Z,3.10
2023-04-05T03:17:23.549Z,3.40
2023-04-05T03:19:26.378Z,3.78
2023-04-05T03:21:30.173Z,2.92
2023-04-05T03:23:32.464Z,3.30
2023-04-05T03:25:36.820Z,3.67
2023-04-05T03:27:38.645Z,3.60
2023-04-05T03:29:41.714Z,3.65
2023-04-05T03:31:43.861Z,3.05
2023-04-05T03:33:45.695Z,3.25
2023-04-05T03:35:48.030Z,3.70
2023-04-05T03:37:50.928Z,3.63
2023-04-05T03:39:54.961Z,3.20
2023-04-05T03:41:56.890Z,3.70
2023-04-05T03:43:58.582Z,3.13
2023-04-05T03:46:00.466Z,3.10
2023-04-05T03:48:03.321Z,3.80
2023-04-05T03:50:06.102Z,3.95
2023-04-05T03:52:08.744Z,3.65
2023-04-05T03:54:10.463Z,3.53
2023-04-05T03:56:12.404Z,3.80
2023-04-05T03:58:14.191Z,3.30
2023-04-05T04:00:17.868Z,3.90
2023-04-05T04:02:19.789Z,3.33
2023-04-05T04:04:21.516Z,3.75
2023-04-05T04:06:27.341Z,3.72
2023-04-05T04:08:32.267Z,3.55
2023-04-05T04:10:35.192Z,3.08
2023-04-05T04:12:37.614Z,3.13
2023-04-05T04:14:39.305Z,3.33
2023-04-05T04:16:41.055Z,3.08
2023-04-05T04:18:42.834Z,2.70
2023-04-05T04:20:44.558Z,3.10
2023-04-05T04:22:49.055Z,2.72
2023-04-05T04:24:50.923Z,2.80
2023-04-05T04:26:54.697Z,3.65
2023-04-05T04:28:56.775Z,3.40
2023-04-05T04:30:58.827Z,3.22
2023-04-05T04:33:06.652Z,3.15
2023-04-05T04:35:15.280Z,3.38
2023-04-05T04:37:18.087Z,3.45
2023-04-05T04:39:19.782Z,2.75
2023-04-05T04:41:22.854Z,3.28
2023-04-05T04:43:26.876Z,2.92
2023-04-05T04:45:29.089Z,2.92
2023-04-05T04:47:31.916Z,3.22
2023-04-05T04:49:33.907Z,2.95
2023-04-05T04:51:38.122Z,3.45
2023-04-05T04:53:39.857Z,3.67
2023-04-05T04:55:42.535Z,3.25
2023-04-05T04:57:44.521Z,3.63
2023-04-05T04:59:46.399Z,4.00
2023-04-05T05:01:48.188Z,3.38
2023-04-05T05:03:49.972Z,3.60
2023-04-05T05:05:53.940Z,3.40
2023-04-05T05:07:55.792Z,3.58
2023-04-05T05:09:57.594Z,3.72
2023-04-05T05:12:01.371Z,3.55
2023-04-05T05:14:03.184Z,3.80
2023-04-05T05:16:05.756Z,4.03
2023-04-05T05:18:09.076Z,3.63
2023-04-05T05:20:12.097Z,3.80
2023-04-05T05:22:13.789Z,3.80
2023-04-05T05:24:15.718Z,3.97
2023-04-05T05:26:17.424Z,3.17
2023-04-05T05:28:19.185Z,3.80
2023-04-05T05:30:21.161Z,3.35
2023-04-05T05:32:23.351Z,3.80
2023-04-05T05:34:25.267Z,3.47
2023-04-05T05:36:28.087Z,4.20
2023-04-05T05:38:29.856Z,3.85
2023-04-05T05:40:31.575Z,3.28
2023-04-05T05:42:34.219Z,3.83
2023-04-05T05:44:36.319Z,3.92
2023-04-05T05:46:40.263Z,3.83
2023-04-05T05:48:42.193Z,3.72
2023-04-05T05:50:45.159Z,3.80
2023-04-05T05:52:49.981Z,3.80
2023-04-05T05:54:52.108Z,3.53
2023-04-05T05:56:53.885Z,3.72
2023-04-05T05:58:56.075Z,3.53
2023-04-05T06:00:59.457Z,3.78
2023-04-05T06:03:02.019Z,3.65
2023-04-05T06:05:04.329Z,4.05
2023-04-05T06:07:06.101Z,4.03
2023-04-05T06:09:07.801Z,3.25
2023-04-05T06:11:17.537Z,3.38
2023-04-05T06:13:19.642Z,3.50
2023-04-05T06:15:21.528Z,4.45
2023-04-05T06:17:23.620Z,4.15
2023-04-05T06:19:25.725Z,3.97
2023-04-05T06:21:27.992Z,3.88
2023-04-05T06:23:29.853Z,3.80
2023-04-05T06:25:31.777Z,3.83
2023-04-05T06:27:33.736Z,3.20
2023-04-05T06:29:35.615Z,4.40
2023-04-05T06:31:38.062Z,3.78
2023-04-05T06:33:39.975Z,4.43
2023-04-05T06:35:41.853Z,4.10
2023-04-05T06:37:43.690Z,3.72
2023-04-05T06:39:45.564Z,4.15
2023-04-05T06:41:47.505Z,3.80
2023-04-05T06:43:49.325Z,3.90
2023-04-05T06:45:51.299Z,3.33
2023-04-05T06:47:53.382Z,3.88
2023-04-05T06:49:55.131Z,3.22
2023-04-05T06:51:56.952Z,3.65
2023-04-05T06:53:58.971Z,3.67
2023-04-05T06:56:00.918Z,3.50
2023-04-05T06:58:05.810Z,4.18
2023-04-05T07:00:11.819Z,3.97
2023-04-05T07:02:13.807Z,3.70
2023-04-05T07:04:15.980Z,3.83
2023-04-05T07:06:18.379Z,4.75
2023-04-05T07:08:21.567Z,3.92
2023-04-05T07:10:23.507Z,4.72
2023-04-05T07:12:25.630Z,3.00
2023-04-05T07:14:29.967Z,3.90
2023-04-05T07:16:32.276Z,3.60
2023-04-05T07:18:34.142Z,3.67
2023-04-05T07:20:36.256Z,3.38
2023-04-05T07:22:38.152Z,3.88
2023-04-05T07:24:40.212Z,3.47
2023-04-05T07:26:42.359Z,3.72
2023-04-05T07:28:44.351Z,3.75
2023-04-05T07:30:46.246Z,3.55
2023-04-05T07:32:48.341Z,3.40
2023-04-05T07:34:50.150Z,3.53
2023-04-05T07:36:52.551Z,3.53
2023-04-05T07:38:55.092Z,3.78
2023-04-05T07:41:00.188Z,3.22
2023-04-05T07:43:02.057Z,4.18
2023-04-05T07:45:04.910Z,3.95
2023-04-05T07:47:12.841Z,3.63
2023-04-05T07:49:15.810Z,4.07
2023-04-05T07:51:18.600Z,4.13
2023-04-05T07:53:21.051Z,4.00
2023-04-05T07:55:23.055Z,4.25
2023-04-05T07:57:24.994Z,4.53
2023-04-05T07:59:29.846Z,3.08
2023-04-05T08:01:33.589Z,3.45
2023-04-05T08:03:40.159Z,3.15
2023-04-05T08:05:42.650Z,3.72
2023-04-05T08:07:44.524Z,3.40
2023-04-05T08:09:46.913Z,4.22
2023-04-05T08:11:51.965Z,4.25
2023-04-05T08:13:54.806Z,3.80
2023-04-05T08:15:57.679Z,3.53
2023-04-05T08:17:59.723Z,3.50
2023-04-05T08:20:02.025Z,4.53
2023-04-05T08:22:03.974Z,3.33
2023-04-05T08:24:06.446Z,4.32
2023-04-05T08:26:08.602Z,4.55
2023-04-05T08:28:11.290Z,4.45
2023-04-05T08:30:13.463Z,3.90
2023-04-05T08:32:15.623Z,4.93
2023-04-05T08:34:17.763Z,4.00
2023-04-05T08:36:19.858Z,4.57
2023-04-05T08:38:21.845Z,4.40
2023-04-05T08:40:37.482Z,4.80
2023-04-05T08:42:53.299Z,3.63
2023-04-05T08:44:57.922Z,3.95
2023-04-05T08:47:07.207Z,3.88
2023-04-05T08:49:09.413Z,3.90
2023-04-05T08:51:11.347Z,3.65
2023-04-05T08:53:13.273Z,3.88
2023-04-05T08:55:15.934Z,3.40
2023-04-05T08:57:19.354Z,3.25
2023-04-05T08:59:22.094Z,3.28
2023-04-05T09:01:35.560Z,4.03
2023-04-05T09:03:41.015Z,4.25
2023-04-05T09:05:46.873Z,3.53
2023-04-05T09:07:49.423Z,4.75
2023-04-05T09:09:53.929Z,4.60
2023-04-05T09:11:57.654Z,3.75
2023-04-05T09:13:59.793Z,4.40
2023-04-05T09:16:03.209Z,4.95
2023-04-05T09:18:12.427Z,4.15
2023-04-05T09:20:21.435Z,4.70
2023-04-05T09:22:23.273Z,4.03
2023-04-05T09:24:33.549Z,4.88
2023-04-05T09:26:35.541Z,4.82
2023-04-05T09:28:43.517Z,4.50
2023-04-05T09:30:47.896Z,4.65
2023-04-05T09:32:53.255Z,5.30
2023-04-05T09:34:55.592Z,4.53
2023-04-05T09:37:01.675Z,4.78
2023-04-05T09:39:06.964Z,4.93
2023-04-05T09:41:13.665Z,4.50
2023-04-05T09:43:35.013Z,4.57
2023-04-05T09:45:50.073Z,4.10
2023-04-05T09:47:57.554Z,4.22
2023-04-05T09:50:01.081Z,4.35
2023-04-05T09:52:03.161Z,4.32
2023-04-05T09:54:08.832Z,3.70
2023-04-05T09:56:11.940Z,3.47
2023-04-05T09:58:19.811Z,3.45
2023-04-05T10:00:23.526Z,3.40
2023-04-05T10:02:40.843Z,3.50
2023-04-05T10:04:45.538Z,5.15
2023-04-05T10:06:47.974Z,3.83
2023-04-05T10:08:51.446Z,3.45
2023-04-05T10:11:06.530Z,3.00
2023-04-05T10:13:09.071Z,2.90
2023-04-05T10:15:12.352Z,3.13
2023-04-05T10:17:28.065Z,2.85
2023-04-05T10:19:46.945Z,2.20
2023-04-05T10:21:51.485Z,2.47
2023-04-05T10:24:09.385Z,3.00
2023-04-05T10:26:25.917Z,2.90
2023-04-05T10:28:37.698Z,2.80
2023-04-05T10:30:44.852Z,2.58
2023-04-05T10:32:57.299Z,2.70
2023-04-05T10:35:14.579Z,2.50
2023-04-05T10:37:36.991Z,2.70
2023-04-05T10:39:47.102Z,2.65
2023-04-05T10:41:53.907Z,2.72
2023-04-05T10:43:57.959Z,2.90
2023-04-05T10:46:02.169Z,3.17
2023-04-05T10:48:19.152Z,2.75
2023-04-05T10:50:24.247Z,2.97
2023-04-05T10:52:27.651Z,3.25
2023-04-05T10:54:39.087Z,2.70
2023-04-05T10:56:41.495Z,2.80
2023-04-05T10:58:45.587Z,2.83
2023-04-05T11:00:49.685Z,2.65
2023-04-05T11:02:56.663Z,2.47
2023-04-05T11:05:05.283Z,2.45
2023-04-05T11:07:11.487Z,2.53
2023-04-05T11:09:22.948Z,2.50
2023-04-05T11:11:27.607Z,2.78
2023-04-05T11:13:53.850Z,2.97
2023-04-05T11:16:14.884Z,2.97
2023-04-05T11:18:17.169Z,3.25
2023-04-05T11:20:19.228Z,2.95
2023-04-05T11:22:30.333Z,2.60
2023-04-05T11:24:53.849Z,2.88
2023-04-05T11:26:57.759Z,2.97
2023-04-05T11:28:59.880Z,2.78
2023-04-05T11:31:16.915Z,2.88
2023-04-05T11:33:37.882Z,2.58
2023-04-05T11:37:55.518Z,3.00
2023-04-05T11:40:37.176Z,3.08
2023-04-05T11:42:39.252Z,2.88
2023-04-05T11:44:48.452Z,2.83
2023-04-05T11:46:52.335Z,2.83
2023-04-05T11:48:57.358Z,3.20
2023-04-05T11:51:08.615Z,3.30
2023-04-05T11:53:15.961Z,3.65
2023-04-05T11:55:27.028Z,2.80
2023-04-05T11:57:29.213Z,3.22
2023-04-05T11:59:33.377Z,2.90
2023-04-05T12:01:35.323Z,1.83
2023-04-05T12:03:41.758Z,2.28
2023-04-05T12:05:53.510Z,2.42
2023-04-05T12:07:55.987Z,2.33
2023-04-05T12:09:59.275Z,2.28
2023-04-05T12:12:01.358Z,1.83
2023-04-05T12:14:04.030Z,1.80
2023-04-05T12:16:08.090Z,1.95
2023-04-05T12:18:19.127Z,1.73
2023-04-05T12:20:24.823Z,2.50
2023-04-05T12:22:26.873Z,2.10
2023-04-05T12:24:29.080Z,1.88
2023-04-05T12:26:34.411Z,2.20
2023-04-05T12:28:53.831Z,2.17
2023-04-05T12:30:59.093Z,2.65
2023-04-05T12:33:11.012Z,2.83
2023-04-05T12:35:18.201Z,2.80
2023-04-05T12:37:20.568Z,2.58
2023-04-05T12:39:31.755Z,2.20
2023-04-05T12:41:34.210Z,2.25
2023-04-05T12:43:41.119Z,1.60
2023-04-05T12:45:44.776Z,2.17
2023-04-05T12:47:51.078Z,2.25
2023-04-05T12:49:55.613Z,2.15
2023-04-05T12:52:03.173Z,1.98
2023-04-05T12:54:05.157Z,2.00
2023-04-05T12:56:07.532Z,1.88
2023-04-05T12:58:10.589Z,1.73
2023-04-05T13:00:16.295Z,1.88
2023-04-05T13:02:18.409Z,2.50
2023-04-05T13:04:20.912Z,2.10
2023-04-05T13:06:22.974Z,1.80
2023-04-05T13:08:27.239Z,1.85
2023-04-05T13:10:29.469Z,2.22
2023-04-05T13:12:31.331Z,2.30
2023-04-05T13:14:33.215Z,2.17
2023-04-05T13:16:35.259Z,1.85
2023-04-05T13:18:39.755Z,2.20
2023-04-05T13:20:43.336Z,1.75
2023-04-05T13:22:46.268Z,2.10
2023-04-05T13:24:48.153Z,2.03
2023-04-05T13:26:50.344Z,2.38
2023-04-05T13:28:52.424Z,2.13
2023-04-05T13:30:54.694Z,2.25
2023-04-05T13:32:56.963Z,2.35
2023-04-05T13:34:58.960Z,2.00
2023-04-05T13:37:01.298Z,1.90
2023-04-05T13:39:04.230Z,1.90
2023-04-05T13:41:21.817Z,2.10
2023-04-05T13:43:28.169Z,2.67
2023-04-05T13:45:31.620Z,1.83
2023-04-05T13:47:35.592Z,1.90
2023-04-05T13:49:37.581Z,1.75
2023-04-05T13:51:41.726Z,1.48
2023-04-05T13:53:43.650Z,1.25
2023-04-05T13:55:46.352Z,1.75
2023-04-05T13:57:48.256Z,1.77
2023-04-05T13:59:53.410Z,1.58
2023-04-05T14:01:55.710Z,2.13
2023-04-05T14:03:58.063Z,1.80
2023-04-05T14:05:59.954Z,1.52
2023-04-05T14:08:01.951Z,1.80
2023-04-05T14:10:04.943Z,1.77
2023-04-05T14:12:14.045Z,1.70
2023-04-05T14:14:18.951Z,1.60
2023-04-05T14:16:21.044Z,2.45
2023-04-05T14:18:28.945Z,1.88
2023-04-05T14:20:30.914Z,2.20
2023-04-05T14:22:32.848Z,1.80
2023-04-05T14:24:35.267Z,1.70
2023-04-05T14:26:37.786Z,1.60
2023-04-05T14:28:39.713Z,1.70
2023-04-05T14:30:42.123Z,2.65
2023-04-05T14:32:45.434Z,2.13
2023-04-05T14:34:47.372Z,1.92
2023-04-05T14:36:50.149Z,2.45
2023-04-05T14:38:52.172Z,1.90
2023-04-05T14:40:54.141Z,2.40
2023-04-05T14:42:57.063Z,2.42
2023-04-05T14:44:58.943Z,2.20
2023-04-05T14:47:01.304Z,2.15
2023-04-05T14:49:03.670Z,2.33
2023-04-05T14:51:18.533Z,2.10
2023-04-05T14:53:24.296Z,3.10
2023-04-05T14:55:48.296Z,3.28
2023-04-05T14:57:50.689Z,3.10
2023-04-05T15:00:00.037Z,3.10
2023-04-05T15:02:05.480Z,2.95
2023-04-05T15:04:09.297Z,3.15
2023-04-05T15:06:11.871Z,3.05
2023-04-05T15:08:14.450Z,3.40
2023-04-05T15:10:25.423Z,3.10
2023-04-05T15:12:31.623Z,3.10
2023-04-05T15:14:33.914Z,2.70
2023-04-05T15:16:46.280Z,2.90
2023-04-05T15:18:48.460Z,3.13
2023-04-05T15:20:51.436Z,3.05
2023-04-05T15:22:54.050Z,2.92
2023-04-05T15:24:56.383Z,3.20
2023-04-05T15:27:02.557Z,2.97
2023-04-05T15:29:04.711Z,3.78
2023-04-05T15:31:13.715Z,3.13
2023-04-05T15:33:17.838Z,3.40
2023-04-05T15:35:30.985Z,2.55
2023-04-05T15:37:40.248Z,3.25
2023-04-05T15:39:44.938Z,3.25
2023-04-05T15:41:51.585Z,3.13
2023-04-05T15:44:03.978Z,2.88
2023-04-05T15:46:06.336Z,3.55
2023-04-05T15:48:11.099Z,3.25
2023-04-05T15:50:15.949Z,3.20
2023-04-05T15:52:34.375Z,3.33
2023-04-05T15:54:38.248Z,3.10
2023-04-05T15:56:44.726Z,2.95
2023-04-05T15:58:47.153Z,2.97
2023-04-05T16:00:50.157Z,3.08
2023-04-05T16:02:57.406Z,3.10
2023-04-05T16:05:32.157Z,2.70
2023-04-05T16:07:34.281Z,2.70
2023-04-05T16:09:41.114Z,3.00
2023-04-05T16:12:32.629Z,3.00
2023-04-05T16:14:35.291Z,3.13
2023-04-05T16:16:45.929Z,2.92
2023-04-05T16:19:00.347Z,2.95
2023-04-05T16:21:13.479Z,2.92
2023-04-05T16:23:32.335Z,3.10
2023-04-05T16:25:34.470Z,3.00
2023-04-05T16:27:43.286Z,2.80
2023-04-05T16:29:45.444Z,3.33
2023-04-05T16:32:01.322Z,2.97
2023-04-05T16:34:15.196Z,2.97
2023-04-05T16:36:17.975Z,2.97
2023-04-05T16:38:23.096Z,3.05
2023-04-05T16:40:25.658Z,3.13
2023-04-05T16:42:27.802Z,2.90
2023-04-05T16:44:32.239Z,3.15
2023-04-05T16:46:34.849Z,3.78
2023-04-05T16:48:37.090Z,3.72
2023-04-05T16:50:45.958Z,2.78
2023-04-05T16:52:48.981Z,3.50
2023-04-05T16:54:51.424Z,3.10
2023-04-05T16:56:54.319Z,3.25
2023-04-05T16:58:57.809Z,3.10
2023-04-05T17:01:14.954Z,3.33
2023-04-05T17:03:18.867Z,3.67
2023-04-05T17:05:21.184Z,3.55
2023-04-05T17:07:24.046Z,3.17
2023-04-05T17:09:30.123Z,3.88
2023-04-05T17:11:36.357Z,3.92
2023-04-05T17:13:38.861Z,3.85
2023-04-05T17:15:41.099Z,4.03
2023-04-05T17:17:44.913Z,3.50
2023-04-05T17:19:47.891Z,4.43
2023-04-05T17:21:50.297Z,4.03
2023-04-05T17:23:52.497Z,4.13
2023-04-05T17:25:57.153Z,4.63
2023-04-05T17:27:59.224Z,4.85
2023-04-05T17:30:02.008Z,5.03
2023-04-05T17:32:04.010Z,4.75
2023-04-05T17:34:12.839Z,4.65
2023-04-05T17:36:15.573Z,4.90
2023-04-05T17:38:17.673Z,4.30
2023-04-05T17:40:19.812Z,5.07
2023-04-05T17:42:22.017Z,4.63
2023-04-05T17:44:24.078Z,4.55
2023-04-05T17:46:39.650Z,3.83
2023-04-05T17:48:46.895Z,5.43
2023-04-05T17:50:49.239Z,5.03
2023-04-05T17:52:51.275Z,5.22
2023-04-05T17:54:54.559Z,4.75
2023-04-05T17:56:56.710Z,5.13
2023-04-05T17:59:04.562Z,4.90
2023-04-05T18:01:12.257Z,5.03
2023-04-05T18:03:20.381Z,4.35
2023-04-05T18:05:22.984Z,4.40
2023-04-05T18:07:25.058Z,4.88
2023-04-05T18:09:30.045Z,4.60
2023-04-05T18:11:32.225Z,5.13
2023-04-05T18:13:34.191Z,5.57
2023-04-05T18:15:36.256Z,5.35
2023-04-05T18:17:38.618Z,5.38
2023-04-05T18:19:41.364Z,5.63
2023-04-05T18:21:43.666Z,6.00
2023-04-05T18:23:45.498Z,6.13
2023-04-05T18:25:47.890Z,6.60
2023-04-05T18:27:49.917Z,6.85
2023-04-05T18:29:51.931Z,7.50
2023-04-05T18:31:54.371Z,7.57
2023-04-05T18:33:56.523Z,7.32
2023-04-05T18:35:58.433Z,6.25
2023-04-05T18:38:00.710Z,6.05
2023-04-05T18:40:04.018Z,7.03
2023-04-05T18:42:06.025Z,7.97
2023-04-05T18:44:09.336Z,6.82
2023-04-05T18:46:18.391Z,7.50
2023-04-05T18:48:20.889Z,7.40
2023-04-05T18:50:22.716Z,7.50
2023-04-05T18:52:26.332Z,7.50
2023-04-05T18:54:28.290Z,7.90
2023-04-05T18:56:30.450Z,7.38
2023-04-05T18:58:32.511Z,7.65
2023-04-05T19:00:35.127Z,7.28
2023-04-05T19:02:37.348Z,7.45
2023-04-05T19:04:39.197Z,7.68
2023-04-05T19:06:41.028Z,7.53
2023-04-05T19:08:43.210Z,7.22
2023-04-05T19:10:45.091Z,8.30
2023-04-05T19:12:46.899Z,8.40
2023-04-05T19:14:48.775Z,9.20
2023-04-05T19:16:50.828Z,9.18
2023-04-05T19:18:53.696Z,8.82
2023-04-05T19:20:57.364Z,7.72
2023-04-05T19:22:59.322Z,8.40
2023-04-05T19:25:01.407Z,8.30
2023-04-05T19:27:03.371Z,8.95
2023-04-05T19:29:06.174Z,8.85
2023-04-05T19:31:10.475Z,8.57
2023-04-05T19:33:13.427Z,8.52
2023-04-05T19:35:15.785Z,8.80
2023-04-05T19:37:18.163Z,7.97
2023-04-05T19:39:25.610Z,9.13
2023-04-05T19:41:32.684Z,10.77
2023-04-05T19:43:36.833Z,11.98
2023-04-05T19:45:38.921Z,9.98
2023-04-05T19:47:47.005Z,9.38
2023-04-05T19:49:49.870Z,9.63
2023-04-05T19:51:55.153Z,9.77
2023-04-05T19:53:59.580Z,10.27
2023-04-05T19:56:01.612Z,10.55
2023-04-05T19:58:08.484Z,10.15
2023-04-05T20:00:29.877Z,10.73
2023-04-05T20:02:36.929Z,10.52
2023-04-05T20:04:39.800Z,11.35
2023-04-05T20:06:43.104Z,11.18
2023-04-05T20:08:46.949Z,12.23
2023-04-05T20:10:52.269Z,13.43
2023-04-05T20:12:59.651Z,12.65
2023-04-05T20:15:04.664Z,12.88
2023-04-05T20:17:07.350Z,13.68
2023-04-05T20:19:11.127Z,13.60
2023-04-05T20:21:13.950Z,13.52
2023-04-05T20:23:20.131Z,13.88
2023-04-05T20:25:40.870Z,12.95
2023-04-05T20:27:42.962Z,14.73
2023-04-05T20:29:46.123Z,12.73
2023-04-05T20:31:48.176Z,13.05
2023-04-05T20:33:55.209Z,15.95
2023-04-05T20:35:57.046Z,14.20
2023-04-05T20:37:58.973Z,15.20
2023-04-05T20:40:01.147Z,16.35
2023-04-05T20:42:03.970Z,15.30
2023-04-05T20:44:05.988Z,14.23
2023-04-05T20:46:08.447Z,15.70
2023-04-05T20:48:11.237Z,15.98
2023-04-05T20:50:13.290Z,14.38
2023-04-05T20:52:15.812Z,13.80
2023-04-05T20:54:18.196Z,15.30
2023-04-05T20:56:20.162Z,14.77
2023-04-05T20:58:22.898Z,14.23
2023-04-05T21:00:24.755Z,14.68
2023-04-05T21:02:26.789Z,15.43
2023-04-05T21:04:30.109Z,16.08
2023-04-05T21:06:32.386Z,15.27
2023-04-05T21:08:35.079Z,14.70
2023-04-05T21:10:37.157Z,14.73
2023-04-05T21:12:39.175Z,15.65
2023-04-05T21:14:41.120Z,16.15
2023-04-05T21:16:43.071Z,16.50
2023-04-05T21:18:45.076Z,15.57
2023-04-05T21:20:51.113Z,16.35
2023-04-05T21:22:52.966Z,16.42
2023-04-05T21:24:54.843Z,15.88
2023-04-05T21:26:56.939Z,17.13
2023-04-05T21:28:58.800Z,16.75
2023-04-05T21:31:00.742Z,17.05
2023-04-05T21:33:02.780Z,17.38
2023-04-05T21:35:05.072Z,17.80
2023-04-05T21:37:07.073Z,17.63
2023-04-05T21:39:09.019Z,17.92
2023-04-05T21:41:11.113Z,18.10
2023-04-05T21:43:15.635Z,18.80
2023-04-05T21:45:17.608Z,18.50
2023-04-05T21:47:19.807Z,19.33
2023-04-05T21:49:21.810Z,17.27
2023-04-05T21:51:23.698Z,16.23
2023-04-05T21:53:25.680Z,16.88
2023-04-05T21:55:27.489Z,16.55
2023-04-05T21:57:29.450Z,16.42
2023-04-05T21:59:31.377Z,16.90
2023-04-05T22:01:36.075Z,17.10
2023-04-05T22:03:37.999Z,17.05
2023-04-05T22:05:39.898Z,17.00
2023-04-05T22:07:42.118Z,17.33
2023-04-05T22:09:44.117Z,15.98
2023-04-05T22:11:46.196Z,16.48
2023-04-05T22:13:48.125Z,16.70
2023-04-05T22:15:50.085Z,17.23
2023-04-05T22:17:52.040Z,16.88
2023-04-05T22:19:53.911Z,17.02
2023-04-05T22:21:55.981Z,17.05
2023-04-05T22:23:58.087Z,18.42
2023-04-05T22:26:00.182Z,18.20
2023-04-05T22:28:02.141Z,16.35
2023-04-05T22:30:05.500Z,17.10
2023-04-05T22:32:07.679Z,16.83
2023-04-05T22:34:09.712Z,17.65
2023-04-05T22:36:11.686Z,16.45
2023-04-05T22:38:13.592Z,16.30
2023-04-05T22:40:15.387Z,16.80
2023-04-05T22:42:17.210Z,18.83
2023-04-05T22:44:18.966Z,17.02
2023-04-05T22:46:20.847Z,17.77
2023-04-05T22:48:22.832Z,18.52
2023-04-05T22:50:24.637Z,18.27
2023-04-05T22:52:26.654Z,19.00
2023-04-05T22:54:28.440Z,18.02
2023-04-05T22:56:31.642Z,17.92
2023-04-05T22:58:33.443Z,17.85
2023-04-05T23:00:41.316Z,17.33
2023-04-05T23:02:43.473Z,17.27
2023-04-05T23:04:45.374Z,16.38
2023-04-05T23:06:47.140Z,16.77
2023-04-05T23:08:49.004Z,14.63
2023-04-05T23:10:50.880Z,15.35
2023-04-05T23:12:52.926Z,15.82
2023-04-05T23:14:54.737Z,15.95
2023-04-05T23:16:56.596Z,16.13
2023-04-05T23:18:58.373Z,14.32
2023-04-05T23:21:00.183Z,13.60
2023-04-05T23:23:02.174Z,15.55
2023-04-05T23:25:05.789Z,14.65
2023-04-05T23:27:07.612Z,13.45
2023-04-05T23:29:09.582Z,14.05
2023-04-05T23:31:13.874Z,13.35
2023-04-05T23:33:16.297Z,12.80
2023-04-05T23:35:18.249Z,12.65
2023-04-05T23:37:20.146Z,12.18
2023-04-05T23:39:21.972Z,12.40
2023-04-05T23:41:23.836Z,12.75
2023-04-05T23:43:26.030Z,10.85
2023-04-05T23:45:28.225Z,10.98
2023-04-05T23:47:30.189Z,11.48
2023-04-05T23:49:32.161Z,11.98
2023-04-05T23:51:33.939Z,11.23
2023-04-05T23:53:35.892Z,10.77
2023-04-05T23:55:41.976Z,10.38
2023-04-05T23:57:44.065Z,10.73
2023-04-05T23:59:46.220Z,10.15
